createdAt,value
2023-05-12T00:02:14.655Z,11.19
2023-05-12T00:04:42.347Z,11.19
2023-05-12T00:07:09.795Z,11.21
2023-05-12T00:09:38.246Z,11.23
2023-05-12T00:12:06.026Z,11.24
2023-05-12T00:14:33.273Z,11.23
2023-05-12T00:17:00.795Z,11.23
2023-05-12T00:19:28.048Z,11.23
2023-05-12T00:21:55.304Z,11.23
2023-05-12T00:24:22.679Z,11.24
2023-05-12T00:26:49.946Z,11.24
2023-05-12T00:29:18.367Z,11.24
2023-05-12T00:31:45.850Z,11.22
2023-05-12T00:34:13.156Z,11.20
2023-05-12T00:36:40.412Z,11.21
2023-05-12T00:39:07.976Z,11.19
2023-05-12T00:41:35.437Z,11.20
2023-05-12T00:44:02.685Z,11.22
2023-05-12T00:46:31.309Z,11.22
2023-05-12T00:48:59.855Z,11.22
2023-05-12T00:51:28.386Z,11.21
2023-05-12T00:53:57.444Z,11.19
2023-05-12T00:56:26.771Z,11.16
2023-05-12T00:58:54.069Z,11.15
2023-05-12T01:01:21.838Z,11.14
2023-05-12T01:03:53.206Z,11.14
2023-05-12T01:06:38.707Z,11.13
2023-05-12T01:09:08.695Z,11.14
2023-05-12T01:11:36.431Z,11.13
2023-05-12T01:14:04.814Z,11.12
2023-05-12T01:16:41.172Z,11.11
2023-05-12T01:19:36.579Z,11.10
2023-05-12T01:22:04.369Z,11.10
2023-05-12T01:24:36.888Z,11.10
2023-05-12T01:27:05.511Z,11.08
2023-05-12T01:29:33.641Z,11.08
2023-05-12T01:32:03.559Z,11.08
2023-05-12T01:34:34.580Z,11.07
2023-05-12T01:37:02.541Z,11.06
2023-05-12T01:39:30.498Z,11.05
2023-05-12T01:41:58.486Z,11.05
2023-05-12T01:44:26.120Z,11.05
2023-05-12T01:46:53.446Z,11.05
2023-05-12T01:49:22.294Z,11.05
2023-05-12T01:51:50.343Z,11.05
2023-05-12T01:54:23.677Z,11.05
2023-05-12T01:56:51.138Z,11.04
2023-05-12T01:59:18.457Z,11.04
2023-05-12T02:01:45.958Z,11.07
2023-05-12T02:04:16.906Z,11.07
2023-05-12T02:06:46.374Z,11.08
2023-05-12T02:09:13.721Z,11.09
2023-05-12T02:11:41.810Z,11.10
2023-05-12T02:14:09.760Z,11.10
2023-05-12T02:16:38.133Z,11.10
2023-05-12T02:19:05.828Z,11.11
2023-05-12T02:21:33.459Z,11.12
2023-05-12T02:24:00.845Z,11.12
2023-05-12T02:26:28.482Z,11.12
2023-05-12T02:28:56.383Z,11.13
2023-05-12T02:31:24.129Z,11.14
2023-05-12T02:33:53.580Z,11.12
2023-05-12T02:36:21.089Z,11.12
2023-05-12T02:38:48.521Z,11.11
2023-05-12T02:41:16.330Z,11.13
2023-05-12T02:43:44.079Z,11.13
2023-05-12T02:46:12.025Z,11.12
2023-05-12T02:48:39.836Z,11.12
2023-05-12T02:51:07.337Z,11.10
2023-05-12T02:53:34.680Z,11.10
2023-05-12T02:56:02.010Z,11.11
2023-05-12T02:58:29.764Z,11.10
2023-05-12T03:01:09.300Z,11.10
2023-05-12T03:03:37.485Z,11.10
2023-05-12T03:06:06.126Z,11.12
2023-05-12T03:08:33.761Z,11.11
2023-05-12T03:11:01.247Z,11.13
2023-05-12T03:13:31.391Z,11.12
2023-05-12T03:16:01.751Z,11.13
2023-05-12T03:18:32.092Z,11.14
2023-05-12T03:20:59.646Z,11.14
2023-05-12T03:23:27.336Z,11.15
2023-05-12T03:25:55.771Z,11.15
2023-05-12T03:28:26.195Z,11.17
2023-05-12T03:30:54.060Z,11.17
2023-05-12T03:33:21.841Z,11.19
2023-05-12T03:35:51.792Z,11.19
2023-05-12T03:38:20.202Z,11.20
2023-05-12T03:40:52.654Z,11.20
2023-05-12T03:43:21.418Z,11.21
2023-05-12T03:45:49.951Z,11.22
2023-05-12T03:48:17.460Z,11.24
2023-05-12T03:50:44.762Z,11.24
2023-05-12T03:53:12.055Z,11.25
2023-05-12T03:55:39.572Z,11.26
2023-05-12T03:58:08.041Z,11.26
2023-05-12T04:00:38.897Z,11.27
2023-05-12T04:03:08.445Z,11.28
2023-05-12T04:05:39.620Z,11.31
2023-05-12T04:08:07.187Z,11.34
2023-05-12T04:10:42.390Z,11.36
2023-05-12T04:13:09.661Z,11.38
2023-05-12T04:15:37.320Z,11.42
2023-05-12T04:18:04.622Z,11.44
2023-05-12T04:20:31.966Z,11.47
2023-05-12T04:22:59.393Z,11.49
2023-05-12T04:25:26.918Z,11.50
2023-05-12T04:27:54.193Z,11.53
2023-05-12T04:30:22.068Z,11.56
2023-05-12T04:32:50.416Z,11.57
2023-05-12T04:35:17.699Z,11.56
2023-05-12T04:37:45.154Z,11.56
2023-05-12T04:40:12.736Z,11.57
2023-05-12T04:42:40.298Z,11.58
2023-05-12T04:45:11.039Z,11.58
2023-05-12T04:47:39.451Z,11.59
2023-05-12T04:50:07.478Z,11.60
2023-05-12T04:52:34.663Z,11.60
2023-05-12T04:55:02.518Z,11.62
2023-05-12T04:57:29.862Z,11.63
2023-05-12T04:59:59.284Z,11.61
2023-05-12T05:02:29.678Z,11.60
2023-05-12T05:04:57.447Z,11.61
2023-05-12T05:07:25.640Z,11.61
2023-05-12T05:09:55.014Z,11.62
2023-05-12T05:12:22.465Z,11.65
2023-05-12T05:14:49.921Z,11.67
2023-05-12T05:17:17.786Z,11.69
2023-05-12T05:19:57.333Z,11.73
2023-05-12T05:22:28.743Z,11.74
2023-05-12T05:24:56.373Z,11.78
2023-05-12T05:27:23.835Z,11.80
2023-05-12T05:29:51.608Z,11.82
2023-05-12T05:32:18.911Z,11.84
2023-05-12T05:34:46.350Z,11.87
2023-05-12T05:37:13.647Z,11.92
2023-05-12T05:39:41.268Z,11.95
2023-05-12T05:42:08.775Z,11.98
2023-05-12T05:44:36.623Z,12.03
2023-05-12T05:47:05.710Z,12.06
2023-05-12T05:49:33.708Z,12.09
2023-05-12T05:52:02.080Z,12.15
2023-05-12T05:54:29.463Z,12.17
2023-05-12T05:56:56.818Z,12.22
2023-05-12T05:59:24.473Z,12.25
2023-05-12T06:01:51.992Z,12.27
2023-05-12T06:04:19.599Z,12.30
2023-05-12T06:06:47.670Z,12.34
2023-05-12T06:09:16.019Z,12.36
2023-05-12T06:11:43.449Z,12.40
2023-05-12T06:14:12.400Z,12.42
2023-05-12T06:16:39.965Z,12.45
2023-05-12T06:19:09.360Z,12.48
2023-05-12T06:21:38.875Z,12.48
2023-05-12T06:24:06.737Z,12.53
2023-05-12T06:26:34.863Z,12.55
2023-05-12T06:29:02.169Z,12.57
2023-05-12T06:31:31.419Z,12.58
2023-05-12T06:33:58.795Z,12.59
2023-05-12T06:36:26.348Z,12.62
2023-05-12T06:38:54.015Z,12.64
2023-05-12T06:41:22.092Z,12.66
2023-05-12T06:43:49.309Z,12.67
2023-05-12T06:46:16.633Z,12.70
2023-05-12T06:48:43.884Z,12.72
2023-05-12T06:51:11.242Z,12.74
2023-05-12T06:53:38.658Z,12.74
2023-05-12T06:56:06.209Z,12.73
2023-05-12T06:58:33.538Z,12.75
2023-05-12T07:01:01.076Z,12.75
2023-05-12T07:03:32.258Z,12.76
2023-05-12T07:05:59.602Z,12.75
2023-05-12T07:08:31.583Z,12.79
2023-05-12T07:11:03.112Z,12.80
2023-05-12T07:13:31.730Z,12.85
2023-05-12T07:16:00.252Z,12.89
2023-05-12T07:18:27.654Z,12.95
2023-05-12T07:20:55.758Z,13.01
2023-05-12T07:23:23.033Z,13.08
2023-05-12T07:25:50.234Z,13.17
2023-05-12T07:28:17.746Z,13.25
2023-05-12T07:30:44.981Z,13.33
2023-05-12T07:33:12.343Z,13.39
2023-05-12T07:35:39.777Z,13.45
2023-05-12T07:38:09.468Z,13.53
2023-05-12T07:40:36.843Z,13.59
2023-05-12T07:43:04.126Z,13.64
2023-05-12T07:45:31.353Z,13.76
2023-05-12T07:47:58.655Z,13.86
2023-05-12T07:50:26.411Z,13.98
2023-05-12T07:52:54.197Z,14.09
2023-05-12T07:55:23.020Z,14.15
2023-05-12T07:57:50.920Z,14.20
2023-05-12T08:00:19.065Z,14.30
2023-05-12T08:02:47.832Z,14.42
2023-05-12T08:05:15.621Z,14.56
2023-05-12T08:07:44.015Z,14.65
2023-05-12T08:10:13.144Z,14.75
2023-05-12T08:12:41.680Z,14.82
2023-05-12T08:15:09.902Z,14.94
2023-05-12T08:17:37.453Z,15.12
2023-05-12T08:20:05.284Z,15.28
2023-05-12T08:22:32.546Z,15.39
2023-05-12T08:24:59.790Z,15.44
2023-05-12T08:27:27.396Z,15.45
2023-05-12T08:29:56.855Z,15.44
2023-05-12T08:32:24.525Z,15.47
2023-05-12T08:34:52.141Z,15.54
2023-05-12T08:37:19.564Z,15.69
2023-05-12T08:39:46.842Z,15.81
2023-05-12T08:42:35.239Z,15.90
2023-05-12T08:45:03.845Z,16.04
2023-05-12T08:47:33.652Z,16.05
2023-05-12T08:50:03.538Z,16.13
2023-05-12T08:52:36.029Z,16.21
2023-05-12T08:55:05.107Z,16.30
2023-05-12T08:57:33.765Z,16.43
2023-05-12T09:00:04.815Z,16.53
2023-05-12T09:02:44.667Z,16.66
2023-05-12T09:05:16.072Z,16.70
2023-05-12T09:07:47.152Z,16.74
2023-05-12T09:10:32.802Z,16.77
2023-05-12T09:13:22.881Z,16.81
2023-05-12T09:15:53.876Z,16.86
2023-05-12T09:18:21.836Z,17.00
2023-05-12T09:20:49.446Z,17.13
2023-05-12T09:23:19.102Z,17.19
2023-05-12T09:25:49.675Z,17.28
2023-05-12T09:28:17.677Z,17.35
2023-05-12T09:30:44.867Z,17.41
2023-05-12T09:33:13.313Z,17.48
2023-05-12T09:35:45.035Z,17.48
2023-05-12T09:38:17.105Z,17.50
2023-05-12T09:40:45.589Z,17.40
2023-05-12T09:43:15.396Z,17.44
2023-05-12T09:45:44.388Z,17.52
2023-05-12T09:48:13.014Z,17.58
2023-05-12T09:50:47.658Z,17.68
2023-05-12T09:53:17.891Z,17.74
2023-05-12T09:55:46.758Z,17.81
2023-05-12T09:58:19.192Z,17.97
2023-05-12T10:03:18.759Z,18.30
2023-05-12T10:06:01.601Z,18.47
2023-05-12T10:08:42.384Z,18.56
2023-05-12T10:11:10.133Z,18.54
2023-05-12T10:13:38.522Z,18.46
2023-05-12T10:16:07.124Z,18.43
2023-05-12T10:18:35.152Z,18.46
2023-05-12T10:21:04.021Z,18.49
2023-05-12T10:23:31.858Z,18.55
2023-05-12T10:26:07.305Z,18.64
2023-05-12T10:28:34.601Z,18.72
2023-05-12T10:31:03.492Z,18.84
2023-05-12T10:33:31.161Z,18.98
2023-05-12T10:35:59.791Z,19.07
2023-05-12T10:38:27.236Z,19.15
2023-05-12T10:40:58.822Z,19.27
2023-05-12T10:43:38.651Z,19.37
2023-05-12T10:46:26.637Z,19.44
2023-05-12T10:49:06.063Z,19.54
2023-05-12T10:51:54.645Z,19.61
2023-05-12T10:54:25.463Z,19.70
2023-05-12T10:56:57.586Z,19.77
2023-05-12T10:59:27.169Z,19.85
2023-05-12T11:02:03.091Z,19.92
2023-05-12T11:04:37.609Z,20.00
2023-05-12T11:07:08.339Z,20.08
2023-05-12T11:09:44.619Z,20.15
2023-05-12T11:12:17.916Z,20.20
2023-05-12T11:14:47.379Z,20.28
2023-05-12T11:17:16.270Z,20.31
2023-05-12T11:19:51.302Z,20.35
2023-05-12T11:22:21.640Z,20.36
2023-05-12T11:24:49.781Z,20.37
2023-05-12T11:27:20.084Z,20.45
2023-05-12T11:29:56.212Z,20.49
2023-05-12T11:32:23.425Z,20.56
2023-05-12T11:34:51.125Z,20.59
2023-05-12T11:37:21.573Z,20.62
2023-05-12T11:39:49.463Z,20.61
2023-05-12T11:42:19.818Z,20.59
2023-05-12T11:44:49.589Z,20.67
2023-05-12T11:47:19.159Z,20.71
2023-05-12T11:49:48.954Z,20.77
2023-05-12T11:52:17.346Z,20.83
2023-05-12T11:55:00.354Z,20.86
2023-05-12T11:57:35.087Z,20.95
2023-05-12T12:00:06.943Z,21.04
2023-05-12T12:02:36.260Z,21.10
2023-05-12T12:05:04.168Z,21.23
2023-05-12T12:07:36.636Z,21.35
2023-05-12T12:10:17.233Z,21.38
2023-05-12T12:12:46.507Z,21.45
2023-05-12T12:15:13.824Z,21.53
2023-05-12T12:17:41.183Z,21.67
2023-05-12T12:20:14.471Z,21.75
2023-05-12T12:22:41.758Z,21.82
2023-05-12T12:25:11.109Z,21.82
2023-05-12T12:27:43.712Z,21.72
2023-05-12T12:30:11.897Z,21.56
2023-05-12T12:32:40.729Z,21.54
2023-05-12T12:35:09.224Z,21.56
2023-05-12T12:37:36.559Z,21.59
2023-05-12T12:40:08.549Z,21.67
2023-05-12T12:42:37.465Z,21.74
2023-05-12T12:45:08.425Z,21.76
2023-05-12T12:47:38.270Z,21.80
2023-05-12T12:50:10.889Z,21.85
2023-05-12T12:52:38.659Z,21.91
2023-05-12T12:55:07.296Z,21.95
2023-05-12T12:57:35.120Z,21.98
2023-05-12T13:00:04.633Z,22.00
2023-05-12T13:02:32.233Z,22.03
2023-05-12T13:05:04.168Z,22.07
2023-05-12T13:07:32.166Z,22.09
2023-05-12T13:09:59.434Z,22.08
2023-05-12T13:12:26.829Z,22.08
2023-05-12T13:14:54.271Z,22.08
2023-05-12T13:17:21.527Z,22.08
2023-05-12T13:19:48.782Z,22.13
2023-05-12T13:22:16.508Z,22.17
2023-05-12T13:24:45.465Z,22.20
2023-05-12T13:27:12.773Z,22.24
2023-05-12T13:29:42.127Z,22.28
2023-05-12T13:32:09.510Z,22.36
2023-05-12T13:34:36.765Z,22.43
2023-05-12T13:37:04.502Z,22.52
2023-05-12T13:39:32.073Z,22.56
2023-05-12T13:41:59.898Z,22.64
2023-05-12T13:44:27.596Z,22.62
2023-05-12T13:46:54.798Z,22.54
2023-05-12T13:49:23.076Z,22.40
2023-05-12T13:51:51.892Z,22.25
2023-05-12T13:54:19.255Z,22.04
2023-05-12T13:56:46.500Z,21.88
2023-05-12T13:59:13.822Z,21.70
2023-05-12T14:01:41.257Z,21.58
2023-05-12T14:04:08.728Z,21.49
2023-05-12T14:06:36.539Z,21.49
2023-05-12T14:09:07.523Z,21.45
2023-05-12T14:11:35.469Z,21.41
2023-05-12T14:14:03.643Z,21.45
2023-05-12T14:16:31.519Z,21.48
2023-05-12T14:19:00.452Z,21.43
2023-05-12T14:21:28.029Z,21.48
2023-05-12T14:23:57.222Z,21.52
2023-05-12T14:26:26.135Z,21.61
2023-05-12T14:28:53.537Z,21.64
2023-05-12T14:31:22.345Z,21.63
2023-05-12T14:33:49.714Z,21.63
2023-05-12T14:36:17.054Z,21.55
2023-05-12T14:38:44.658Z,21.48
2023-05-12T14:41:12.009Z,21.41
2023-05-12T14:43:39.420Z,21.31
2023-05-12T14:46:09.027Z,21.22
2023-05-12T14:48:36.391Z,21.10
2023-05-12T14:51:05.061Z,20.99
2023-05-12T14:53:32.725Z,20.89
2023-05-12T14:56:01.384Z,20.77
2023-05-12T14:58:28.725Z,20.65
2023-05-12T15:00:56.240Z,20.55
2023-05-12T15:03:24.193Z,20.48
2023-05-12T15:08:21.899Z,20.36
2023-05-12T15:10:49.882Z,20.33
2023-05-12T15:13:20.369Z,20.32
2023-05-12T15:15:47.856Z,20.30
2023-05-12T15:18:15.642Z,20.24
2023-05-12T15:20:46.225Z,20.11
2023-05-12T15:23:13.731Z,20.03
2023-05-12T15:25:42.085Z,19.94
2023-05-12T15:28:10.005Z,19.87
2023-05-12T15:30:37.888Z,19.82
2023-05-12T15:33:08.494Z,19.77
2023-05-12T15:35:36.163Z,19.74
2023-05-12T15:38:06.123Z,19.77
2023-05-12T15:40:34.636Z,19.75
2023-05-12T15:43:03.440Z,19.67
2023-05-12T15:45:31.513Z,19.59
2023-05-12T15:47:59.200Z,19.54
2023-05-12T15:50:26.737Z,19.46
2023-05-12T15:52:54.074Z,19.35
2023-05-12T15:55:21.622Z,19.25
2023-05-12T15:57:50.159Z,19.13
2023-05-12T16:00:17.895Z,19.03
2023-05-12T16:02:47.920Z,19.00
2023-05-12T16:05:15.348Z,18.96
2023-05-12T16:07:43.328Z,18.93
2023-05-12T16:10:11.914Z,18.91
2023-05-12T16:12:40.265Z,18.90
2023-05-12T16:15:08.654Z,18.91
2023-05-12T16:17:36.269Z,18.96
2023-05-12T16:20:05.309Z,19.01
2023-05-12T16:22:32.558Z,19.04
2023-05-12T16:24:59.928Z,19.06
2023-05-12T16:27:27.307Z,19.05
2023-05-12T16:29:55.788Z,19.04
2023-05-12T16:32:23.621Z,19.02
2023-05-12T16:34:51.402Z,19.01
2023-05-12T16:37:18.769Z,18.97
2023-05-12T16:39:46.085Z,18.97
2023-05-12T16:42:13.452Z,18.97
2023-05-12T16:44:40.775Z,18.96
2023-05-12T16:47:09.560Z,18.92
2023-05-12T16:49:36.911Z,18.93
2023-05-12T16:52:06.012Z,18.89
2023-05-12T16:54:33.376Z,18.90
2023-05-12T16:57:04.945Z,18.91
2023-05-12T16:59:36.330Z,18.93
2023-05-12T17:02:05.166Z,18.93
2023-05-12T17:04:32.743Z,18.92
2023-05-12T17:07:01.569Z,18.91
2023-05-12T17:09:28.915Z,18.93
2023-05-12T17:11:56.520Z,18.92
2023-05-12T17:14:23.834Z,18.92
2023-05-12T17:16:51.638Z,18.93
2023-05-12T17:19:19.016Z,18.91
2023-05-12T17:21:46.631Z,18.91
2023-05-12T17:24:14.498Z,18.90
2023-05-12T17:26:42.304Z,18.90
2023-05-12T17:29:09.822Z,18.88
2023-05-12T17:31:37.742Z,18.84
2023-05-12T17:34:06.033Z,18.78
2023-05-12T17:36:33.383Z,18.69
2023-05-12T17:39:00.909Z,18.61
2023-05-12T17:41:29.314Z,18.56
2023-05-12T17:43:56.906Z,18.51
2023-05-12T17:46:24.609Z,18.45
2023-05-12T17:48:52.320Z,18.39
2023-05-12T17:51:20.056Z,18.34
2023-05-12T17:53:47.327Z,18.27
2023-05-12T17:56:14.577Z,18.23
2023-05-12T17:58:42.842Z,18.18
2023-05-12T18:01:10.492Z,18.16
2023-05-12T18:03:38.100Z,18.08
2023-05-12T18:06:05.846Z,18.03
2023-05-12T18:08:33.155Z,17.97
2023-05-12T18:11:00.642Z,17.88
2023-05-12T18:13:28.106Z,17.83
2023-05-12T18:15:55.518Z,17.78
2023-05-12T18:18:22.836Z,17.70
2023-05-12T18:20:50.914Z,17.65
2023-05-12T18:23:18.452Z,17.59
2023-05-12T18:25:47.467Z,17.53
2023-05-12T18:28:15.113Z,17.46
2023-05-12T18:30:42.749Z,17.42
2023-05-12T18:33:10.752Z,17.37
2023-05-12T18:35:38.190Z,17.32
2023-05-12T18:38:05.723Z,17.27
2023-05-12T18:40:33.032Z,17.23
2023-05-12T18:43:02.878Z,17.18
2023-05-12T18:45:32.742Z,17.12
2023-05-12T18:48:00.832Z,17.07
2023-05-12T18:50:28.251Z,17.03
2023-05-12T18:52:55.895Z,17.00
2023-05-12T18:55:23.988Z,16.94
2023-05-12T18:57:51.389Z,16.88
2023-05-12T19:00:23.559Z,16.81
2023-05-12T19:02:53.505Z,16.74
2023-05-12T19:05:21.277Z,16.69
2023-05-12T19:07:48.819Z,16.62
2023-05-12T19:10:16.443Z,16.56
2023-05-12T19:12:48.219Z,16.51
2023-05-12T19:15:16.328Z,16.47
2023-05-12T19:17:43.910Z,16.41
2023-05-12T19:20:12.046Z,16.37
2023-05-12T19:22:39.341Z,16.32
2023-05-12T19:25:07.138Z,16.27
2023-05-12T19:27:34.606Z,16.23
2023-05-12T19:30:02.665Z,16.18
2023-05-12T19:32:31.525Z,16.15
2023-05-12T19:35:00.222Z,16.12
2023-05-12T19:37:27.951Z,16.09
2023-05-12T19:39:55.720Z,16.05
2023-05-12T19:42:23.612Z,16.00
2023-05-12T19:44:51.307Z,15.95
2023-05-12T19:47:19.375Z,15.90
2023-05-12T19:49:47.291Z,15.86
2023-05-12T19:52:14.724Z,15.82
2023-05-12T19:54:43.309Z,15.78
2023-05-12T19:57:10.826Z,15.74
2023-05-12T19:59:41.380Z,15.68
2023-05-12T20:02:12.957Z,15.62
2023-05-12T20:04:41.189Z,15.55
2023-05-12T20:07:08.719Z,15.49
2023-05-12T20:09:37.036Z,15.45
2023-05-12T20:12:07.795Z,15.38
2023-05-12T20:14:36.486Z,15.34
2023-05-12T20:17:07.442Z,15.31
2023-05-12T20:19:38.642Z,15.27
2023-05-12T20:22:06.603Z,15.22
2023-05-12T20:24:34.096Z,15.17
2023-05-12T20:27:03.721Z,15.15
2023-05-12T20:29:34.721Z,15.13
2023-05-12T20:32:05.496Z,15.08
2023-05-12T20:34:33.587Z,15.03
2023-05-12T20:37:01.219Z,14.97
2023-05-12T20:39:29.832Z,14.91
2023-05-12T20:41:57.598Z,14.87
2023-05-12T20:44:26.532Z,14.80
2023-05-12T20:46:54.617Z,14.76
2023-05-12T20:49:22.008Z,14.72
2023-05-12T20:51:49.462Z,14.69
2023-05-12T20:54:17.059Z,14.64
2023-05-12T20:56:44.671Z,14.61
2023-05-12T20:59:12.461Z,14.56
2023-05-12T21:01:39.746Z,14.53
2023-05-12T21:04:07.475Z,14.49
2023-05-12T21:06:36.197Z,14.46
2023-05-12T21:09:05.207Z,14.40
2023-05-12T21:11:32.762Z,14.36
2023-05-12T21:14:00.561Z,14.32
2023-05-12T21:16:29.044Z,14.28
2023-05-12T21:18:57.063Z,14.21
2023-05-12T21:21:24.522Z,14.18
2023-05-12T21:23:51.889Z,14.13
2023-05-12T21:26:19.625Z,14.08
2023-05-12T21:28:47.157Z,14.03
2023-05-12T21:31:14.438Z,13.99
2023-05-12T21:33:42.405Z,13.93
2023-05-12T21:36:09.769Z,13.89
2023-05-12T21:38:37.031Z,13.85
2023-05-12T21:41:04.403Z,13.82
2023-05-12T21:43:31.672Z,13.77
2023-05-12T21:46:03.441Z,13.75
2023-05-12T21:48:32.082Z,13.73
2023-05-12T21:51:02.252Z,13.68
2023-05-12T21:53:29.846Z,13.65
2023-05-12T21:55:57.135Z,13.61
2023-05-12T21:58:27.076Z,13.58
2023-05-12T22:00:54.477Z,13.55
2023-05-12T22:03:22.900Z,13.54
2023-05-12T22:05:50.596Z,13.50
2023-05-12T22:08:19.444Z,13.48
2023-05-12T22:10:47.166Z,13.45
2023-05-12T22:13:15.655Z,13.41
2023-05-12T22:15:43.423Z,13.37
2023-05-12T22:18:10.968Z,13.33
2023-05-12T22:20:38.352Z,13.31
2023-05-12T22:23:06.251Z,13.27
2023-05-12T22:25:33.556Z,13.25
2023-05-12T22:28:00.844Z,13.23
2023-05-12T22:30:28.092Z,13.20
2023-05-12T22:32:55.572Z,13.18
2023-05-12T22:35:22.921Z,13.18
2023-05-12T22:37:50.390Z,13.15
2023-05-12T22:40:18.183Z,13.13
2023-05-12T22:42:46.836Z,13.09
2023-05-12T22:45:14.147Z,13.05
2023-05-12T22:47:41.867Z,13.04
2023-05-12T22:50:10.683Z,13.01
2023-05-12T22:52:38.272Z,12.96
2023-05-12T22:55:06.007Z,12.91
2023-05-12T22:57:33.312Z,12.87
2023-05-12T23:00:00.856Z,12.82
2023-05-12T23:02:28.415Z,12.79
2023-05-12T23:04:55.923Z,12.75
2023-05-12T23:07:23.574Z,12.72
2023-05-12T23:09:52.449Z,12.67
2023-05-12T23:12:21.071Z,12.67
2023-05-12T23:14:48.472Z,12.65
2023-05-12T23:17:16.055Z,12.64
2023-05-12T23:19:43.499Z,12.60
2023-05-12T23:22:10.834Z,12.59
2023-05-12T23:24:38.285Z,12.57
2023-05-12T23:27:06.005Z,12.55
2023-05-12T23:29:34.744Z,12.55
2023-05-12T23:32:02.643Z,12.53
2023-05-12T23:34:33.363Z,12.51
2023-05-12T23:37:00.757Z,12.49
2023-05-12T23:39:27.949Z,12.46
2023-05-12T23:41:55.368Z,12.43
2023-05-12T23:44:22.832Z,12.40
2023-05-12T23:46:50.507Z,12.38
2023-05-12T23:49:18.011Z,12.34
2023-05-12T23:51:46.298Z,12.31
2023-05-12T23:54:13.557Z,12.29
2023-05-12T23:56:42.193Z,12.26
2023-05-12T23:59:09.590Z,12.24
